Time;durP1;ratioP1;P1;durP2;ratioP2;P2;SDS_P1;SDS_P2;PMS_P1;PMS_P2;Temp;Humidity;BMP_temperature;BMP_pressure;BME280_temperature;BME280_humidity;BME280_pressure;Samples;Min_cycle;Max_cycle;Signal;HPM_P1;HPM_P2
2024/03/10 00:00:39;;;;;;;0.20;0.20;;;10.20;99.90;;;;;;4180504;28;20423;-56
2024/03/10 00:02:43;;;;;;;0.90;0.20;;;10.20;99.90;;;;;;4180897;28;20041;-57
2024/03/10 00:04:46;;;;;;;;;;;10.20;99.90;;;;;;4181501;28;20048;-59
2024/03/10 00:06:48;;;;;;;0.20;0.20;;;10.20;99.90;;;;;;4180219;28;19924;-56
2024/03/10 00:08:53;;;;;;;1.95;0.75;;;10.20;99.90;;;;;;4180259;28;20095;-55
2024/03/10 00:10:56;;;;;;;0.13;0.13;;;10.20;99.90;;;;;;4180325;28;20072;-55
2024/03/10 00:12:58;;;;;;;0.13;0.13;;;10.20;99.90;;;;;;4179847;28;20049;-55
2024/03/10 00:15:00;;;;;;;0.10;0.10;;;10.20;99.90;;;;;;4163268;28;20045;-58
2024/03/10 00:17:03;;;;;;;0.00;0.00;;;10.20;99.90;;;;;;4180731;28;20051;-56
2024/03/10 00:19:05;;;;;;;0.45;0.22;;;10.10;99.90;;;;;;4180490;28;20080;-56
2024/03/10 00:21:08;;;;;;;0.65;0.63;;;10.20;99.90;;;;;;4180498;28;20484;-56
2024/03/10 00:23:10;;;;;;;0.00;0.00;;;10.20;99.90;;;;;;4181030;28;20064;-62
2024/03/10 00:25:15;;;;;;;0.20;0.10;;;10.30;99.90;;;;;;4163285;28;20169;-56
2024/03/10 00:27:17;;;;;;;0.00;0.00;;;10.30;99.90;;;;;;4180656;28;20058;-56
2024/03/10 00:29:19;;;;;;;0.30;0.30;;;10.30;99.90;;;;;;4180933;28;20052;-55
2024/03/10 00:31:21;;;;;;;0.00;0.00;;;10.20;99.90;;;;;;4180137;28;20045;-56
2024/03/10 00:33:24;;;;;;;0.10;0.10;;;10.20;99.90;;;;;;4181704;28;20082;-56
2024/03/10 00:35:26;;;;;;;0.20;0.15;;;10.10;99.90;;;;;;4183637;28;20136;-56
2024/03/10 00:37:28;;;;;;;0.00;0.00;;;10.20;99.90;;;;;;4183611;28;20049;-55
2024/03/10 00:39:31;;;;;;;0.17;0.17;;;10.20;99.90;;;;;;4183876;28;20041;-57
2024/03/10 00:41:35;;;;;;;0.08;0.08;;;10.10;99.90;;;;;;4183201;28;20063;-56
2024/03/10 00:43:37;;;;;;;0.40;0.10;;;10.20;99.90;;;;;;4183927;28;20095;-57
2024/03/10 00:45:40;;;;;;;0.10;0.10;;;10.20;99.90;;;;;;4183685;28;20052;-56
2024/03/10 00:47:43;;;;;;;0.28;0.10;;;10.20;99.90;;;;;;4183991;28;20104;-56
2024/03/10 00:49:45;;;;;;;2.00;0.10;;;10.20;99.90;;;;;;4183996;28;20053;-56
2024/03/10 00:51:48;;;;;;;0.45;0.20;;;10.20;99.90;;;;;;4183751;28;20052;-56
2024/03/10 00:53:50;;;;;;;0.47;0.45;;;10.20;99.90;;;;;;4183529;28;20500;-56
2024/03/10 00:55:54;;;;;;;0.05;0.05;;;10.20;99.90;;;;;;4183110;28;20045;-56
2024/03/10 00:57:58;;;;;;;0.13;0.10;;;10.20;99.90;;;;;;4183723;28;20061;-56
2024/03/10 01:00:01;;;;;;;1.23;0.65;;;10.10;99.90;;;;;;4183369;28;20136;-58
2024/03/10 01:02:05;;;;;;;0.13;0.10;;;10.20;99.90;;;;;;4183475;28;20073;-56
2024/03/10 01:04:08;;;;;;;1.85;0.40;;;10.20;99.90;;;;;;4182966;28;20048;-58
2024/03/10 01:06:12;;;;;;;1.95;0.68;;;10.10;99.90;;;;;;4183069;28;20460;-56
2024/03/10 01:08:15;;;;;;;0.10;0.10;;;10.10;99.90;;;;;;4183672;28;20445;-58
2024/03/10 01:10:17;;;;;;;0.20;0.20;;;10.20;99.90;;;;;;4182834;28;20049;-55
2024/03/10 01:12:20;;;;;;;0.10;0.10;;;10.20;99.90;;;;;;4183709;28;20036;-56
2024/03/10 01:14:23;;;;;;;0.00;0.00;;;10.20;99.90;;;;;;4183647;28;20111;-56
2024/03/10 01:16:26;;;;;;;0.80;0.15;;;10.20;99.90;;;;;;4182912;28;20098;-56
2024/03/10 01:18:28;;;;;;;0.45;0.45;;;10.10;99.90;;;;;;4182883;28;20555;-60
2024/03/10 01:20:30;;;;;;;0.17;0.17;;;10.10;99.90;;;;;;4183208;28;20172;-56
2024/03/10 01:22:32;;;;;;;0.00;0.00;;;10.10;99.90;;;;;;4183521;28;20495;-55
2024/03/10 01:24:34;;;;;;;0.00;0.00;;;10.10;99.90;;;;;;4182429;28;20059;-55
2024/03/10 01:26:36;;;;;;;0.38;0.38;;;10.10;99.90;;;;;;4182729;28;20041;-58
2024/03/10 01:28:38;;;;;;;0.38;0.15;;;10.10;99.90;;;;;;4182967;28;20411;-56
2024/03/10 01:30:42;;;;;;;0.55;0.13;;;10.10;99.90;;;;;;4183357;28;20072;-56
2024/03/10 01:32:44;;;;;;;0.30;0.30;;;10.10;99.90;;;;;;4182805;28;20064;-56
2024/03/10 01:34:46;;;;;;;0.10;0.10;;;10.20;99.90;;;;;;4182851;28;20055;-55
2024/03/10 01:36:48;;;;;;;0.45;0.15;;;10.10;99.90;;;;;;4183261;28;20049;-61
2024/03/10 01:38:51;;;;;;;0.28;0.22;;;10.00;99.90;;;;;;4182915;28;20488;-55
2024/03/10 01:40:53;;;;;;;0.30;0.10;;;9.90;99.90;;;;;;4182214;28;20041;-55
2024/03/10 01:42:55;;;;;;;0.00;0.00;;;9.90;99.90;;;;;;4182622;28;20068;-55
2024/03/10 01:44:59;;;;;;;0.00;0.00;;;10.00;99.90;;;;;;4163480;28;20037;-56
2024/03/10 01:47:03;;;;;;;0.00;0.00;;;10.00;99.90;;;;;;4182842;28;20045;-56
2024/03/10 01:49:06;;;;;;;0.10;0.10;;;10.10;99.90;;;;;;4182759;28;20480;-55
2024/03/10 01:51:09;;;;;;;0.00;0.00;;;10.00;99.90;;;;;;4164869;28;20529;-56
2024/03/10 01:53:11;;;;;;;0.20;0.10;;;9.90;99.90;;;;;;4165005;28;20110;-56
2024/03/10 01:55:18;;;;;;;0.10;0.10;;;9.90;99.90;;;;;;4182748;28;20051;-56
2024/03/10 01:57:25;;;;;;;2.10;0.30;;;9.90;99.90;;;;;;4182597;28;20045;-56
2024/03/10 01:59:28;;;;;;;0.10;0.10;;;9.90;99.90;;;;;;4182808;28;20076;-57
2024/03/10 02:01:32;;;;;;;0.10;0.10;;;9.90;99.90;;;;;;4183737;28;20120;-55
2024/03/10 02:03:38;;;;;;;0.13;0.13;;;9.90;99.90;;;;;;4183671;28;20471;-65
2024/03/10 02:05:40;;;;;;;0.08;0.00;;;9.90;99.90;;;;;;4183967;28;20443;-64
2024/03/10 02:07:43;;;;;;;0.00;0.00;;;10.00;99.90;;;;;;4165963;28;20046;-56
2024/03/10 02:09:45;;;;;;;0.00;0.00;;;10.00;99.90;;;;;;4182233;28;20080;-56
2024/03/10 02:11:47;;;;;;;0.00;0.00;;;10.10;99.90;;;;;;4182353;28;20071;-55
2024/03/10 02:13:50;;;;;;;0.90;0.22;;;10.00;99.90;;;;;;4182397;28;20139;-62
2024/03/10 02:15:59;;;;;;;0.10;0.10;;;10.10;99.90;;;;;;4165406;28;20060;-55
2024/03/10 02:18:02;;;;;;;0.03;0.03;;;10.00;99.90;;;;;;4182809;28;20682;-62
2024/03/10 02:20:14;;;;;;;0.13;0.13;;;10.00;99.90;;;;;;4164301;28;20431;-56
2024/03/10 02:22:16;;;;;;;0.20;0.20;;;10.10;99.90;;;;;;4182134;28;20049;-56
2024/03/10 02:24:23;;;;;;;0.22;0.20;;;10.00;99.90;;;;;;4181566;28;20053;-55
2024/03/10 02:26:32;;;;;;;0.20;0.10;;;10.00;99.90;;;;;;4164344;28;20111;-59
2024/03/10 02:28:46;;;;;;;0.32;0.32;;;10.00;99.90;;;;;;4182329;28;20106;-57
2024/03/10 02:30:55;;;;;;;0.20;0.10;;;10.00;99.90;;;;;;4164203;28;20448;-56
2024/03/10 02:47:13;;;;;;;0.13;0.13;;;9.90;99.90;;;;;;4181759;28;20544;-57
2024/03/10 02:49:16;;;;;;;0.08;0.08;;;9.90;99.90;;;;;;4181952;28;20133;-56
2024/03/10 02:51:18;;;;;;;0.00;0.00;;;9.90;99.90;;;;;;4181396;28;20055;-56
2024/03/10 02:53:20;;;;;;;0.10;0.10;;;9.90;99.90;;;;;;4181273;28;20057;-56
2024/03/10 02:55:23;;;;;;;0.03;0.03;;;10.00;99.90;;;;;;4181330;28;20408;-55
2024/03/10 02:57:27;;;;;;;0.35;0.17;;;10.00;99.90;;;;;;4181121;28;20466;-55
2024/03/10 02:59:30;;;;;;;0.10;0.10;;;10.10;99.90;;;;;;4181456;28;20053;-56
2024/03/10 03:01:37;;;;;;;1.02;0.40;;;10.10;99.90;;;;;;4181908;28;20120;-56
2024/03/10 03:03:39;;;;;;;0.30;0.20;;;10.20;99.90;;;;;;4181355;28;20116;-56
2024/03/10 03:05:42;;;;;;;0.00;0.00;;;10.10;99.90;;;;;;4182091;28;20051;-61
2024/03/10 03:07:44;;;;;;;0.45;0.40;;;10.10;99.90;;;;;;4180959;28;20107;-56
2024/03/10 03:09:46;;;;;;;0.30;0.30;;;10.20;99.90;;;;;;4181248;28;20057;-60
2024/03/10 03:11:49;;;;;;;0.30;0.30;;;10.20;99.90;;;;;;4182104;28;20045;-55
2024/03/10 03:13:52;;;;;;;0.30;0.10;;;10.10;99.90;;;;;;4181391;28;20443;-56
2024/03/10 03:15:58;;;;;;;0.10;0.10;;;10.10;99.90;;;;;;4181668;28;20045;-60
2024/03/10 03:18:00;;;;;;;0.32;0.32;;;10.10;99.90;;;;;;4181662;28;20056;-55
2024/03/10 03:20:03;;;;;;;0.30;0.22;;;10.10;99.90;;;;;;4180868;28;20508;-57
2024/03/10 03:22:09;;;;;;;0.10;0.10;;;10.10;99.90;;;;;;4180759;28;20049;-56
2024/03/10 03:24:13;;;;;;;0.10;0.10;;;10.00;99.90;;;;;;4181068;28;20049;-57
2024/03/10 03:26:15;;;;;;;0.30;0.10;;;10.00;99.90;;;;;;4181012;28;20049;-56
2024/03/10 03:28:17;;;;;;;0.73;0.73;;;10.10;99.90;;;;;;4180841;28;20098;-56
2024/03/10 03:30:22;;;;;;;0.10;0.10;;;10.10;99.90;;;;;;4181056;28;20060;-56
2024/03/10 03:32:24;;;;;;;0.30;0.20;;;10.10;99.90;;;;;;4181237;28;20506;-58
2024/03/10 03:34:26;;;;;;;0.00;0.00;;;10.00;99.90;;;;;;4181346;28;20048;-56
2024/03/10 03:36:29;;;;;;;0.10;0.10;;;9.90;99.90;;;;;;4180636;28;20045;-57
2024/03/10 03:38:31;;;;;;;0.05;0.05;;;10.00;99.90;;;;;;4180905;28;20515;-56
2024/03/10 03:40:33;;;;;;;0.10;0.10;;;9.90;99.90;;;;;;4180687;28;20080;-55
2024/03/10 03:42:36;;;;;;;0.00;0.00;;;9.90;99.90;;;;;;4180367;28;20045;-56
2024/03/10 03:44:38;;;;;;;0.20;0.10;;;10.00;99.90;;;;;;4180961;28;20045;-56
2024/03/10 03:46:41;;;;;;;0.10;0.10;;;9.90;99.90;;;;;;4180649;28;20076;-56
2024/03/10 03:48:43;;;;;;;0.30;0.10;;;9.90;99.90;;;;;;4181088;28;20076;-58
2024/03/10 03:50:45;;;;;;;0.10;0.10;;;10.00;99.90;;;;;;4180413;28;20037;-55
2024/03/10 03:52:49;;;;;;;0.00;0.00;;;9.90;99.90;;;;;;4180871;28;20076;-56
2024/03/10 03:54:51;;;;;;;0.00;0.00;;;9.90;99.90;;;;;;4180615;28;20057;-55
2024/03/10 03:56:56;;;;;;;0.00;0.00;;;10.00;99.90;;;;;;4180625;28;20055;-55
2024/03/10 03:58:59;;;;;;;0.20;0.20;;;9.90;99.90;;;;;;4180379;28;20071;-55
2024/03/10 04:01:04;;;;;;;1.05;0.13;;;9.90;99.90;;;;;;4180721;28;20068;-60
2024/03/10 04:03:09;;;;;;;0.10;0.00;;;9.90;99.90;;;;;;4180793;28;20056;-56
2024/03/10 04:05:12;;;;;;;0.05;0.05;;;9.80;99.90;;;;;;4180487;28;20084;-58
2024/03/10 04:07:14;;;;;;;0.00;0.00;;;9.80;99.90;;;;;;4180045;28;20124;-55
2024/03/10 04:09:16;;;;;;;0.00;0.00;;;9.90;99.90;;;;;;4180022;28;20124;-56
2024/03/10 04:11:19;;;;;;;0.00;0.00;;;9.80;99.90;;;;;;4180475;28;20178;-56
2024/03/10 04:13:21;;;;;;;0.20;0.00;;;9.80;99.90;;;;;;4180473;28;20099;-57
2024/03/10 04:15:24;;;;;;;0.38;0.00;;;9.70;99.90;;;;;;4180792;28;20492;-59
2024/03/10 04:17:26;;;;;;;2.28;0.20;;;9.60;99.90;;;;;;4180698;28;20045;-61
2024/03/10 04:19:31;;;;;;;0.00;0.00;;;9.70;99.90;;;;;;4180023;28;20049;-56
2024/03/10 04:21:33;;;;;;;0.00;0.00;;;9.70;99.90;;;;;;4180696;28;20056;-56
2024/03/10 04:23:36;;;;;;;0.63;0.50;;;9.70;99.90;;;;;;4180456;28;20083;-55
2024/03/10 04:25:38;;;;;;;0.00;0.00;;;9.80;99.90;;;;;;4180448;28;20090;-58
2024/03/10 04:27:42;;;;;;;0.00;0.00;;;9.80;99.90;;;;;;4180168;28;20632;-55
2024/03/10 04:29:45;;;;;;;0.00;0.00;;;9.80;99.90;;;;;;4180240;28;20496;-56
2024/03/10 04:31:48;;;;;;;0.25;0.03;;;9.80;99.90;;;;;;4180423;28;20060;-55
2024/03/10 04:33:51;;;;;;;0.00;0.00;;;9.80;99.90;;;;;;4179809;28;20056;-55
2024/03/10 04:35:54;;;;;;;0.00;0.00;;;9.80;99.90;;;;;;4180255;28;20496;-56
2024/03/10 04:37:56;;;;;;;0.10;0.00;;;9.70;99.90;;;;;;4180495;28;20079;-56
2024/03/10 04:39:59;;;;;;;0.00;0.00;;;9.80;99.90;;;;;;4180998;28;20049;-55
2024/03/10 04:42:01;;;;;;;0.00;0.00;;;9.70;99.90;;;;;;4180458;28;20045;-54
2024/03/10 04:44:03;;;;;;;0.00;0.00;;;9.70;99.90;;;;;;4180300;28;20467;-56
2024/03/10 04:46:06;;;;;;;0.00;0.00;;;9.80;99.90;;;;;;4178944;28;20065;-55
2024/03/10 04:48:08;;;;;;;0.00;0.00;;;9.80;99.90;;;;;;4179914;28;20045;-55
2024/03/10 04:50:10;;;;;;;0.00;0.00;;;9.80;99.90;;;;;;4180829;28;20053;-56
2024/03/10 04:52:14;;;;;;;0.00;0.00;;;9.80;99.90;;;;;;4181122;28;20041;-57
2024/03/10 04:54:16;;;;;;;0.00;0.00;;;9.70;99.90;;;;;;4181216;28;20045;-63
2024/03/10 04:56:18;;;;;;;0.00;0.00;;;9.70;99.90;;;;;;4180353;28;20102;-56
2024/03/10 04:58:22;;;;;;;0.15;0.00;;;9.70;99.90;;;;;;4180482;28;20107;-59
2024/03/10 05:00:25;;;;;;;0.00;0.00;;;9.70;99.90;;;;;;4180374;28;20077;-56
2024/03/10 05:02:27;;;;;;;0.00;0.00;;;9.70;99.90;;;;;;4178929;28;20413;-56
2024/03/10 05:04:29;;;;;;;0.00;0.00;;;9.70;99.90;;;;;;4179847;28;20052;-56
2024/03/10 05:06:32;;;;;;;0.00;0.00;;;9.60;99.90;;;;;;4180234;28;20535;-56
2024/03/10 05:08:37;;;;;;;0.00;0.00;;;9.70;99.90;;;;;;4180097;28;20049;-58
2024/03/10 05:10:40;;;;;;;0.00;0.00;;;9.70;99.90;;;;;;4178966;28;20052;-55
2024/03/10 05:12:43;;;;;;;0.00;0.00;;;9.70;99.90;;;;;;4180006;28;20072;-60
2024/03/10 05:14:45;;;;;;;0.10;0.00;;;9.70;99.90;;;;;;4180093;28;20484;-56
2024/03/10 05:16:47;;;;;;;0.00;0.00;;;9.70;99.90;;;;;;4179955;28;20390;-56
2024/03/10 05:18:49;;;;;;;0.00;0.00;;;9.80;99.90;;;;;;4180474;28;20381;-56
2024/03/10 05:20:52;;;;;;;0.52;0.28;;;9.80;99.90;;;;;;4165423;28;20382;-56
2024/03/10 05:22:55;;;;;;;0.20;0.10;;;9.80;99.90;;;;;;4183521;28;20119;-56
2024/03/10 05:24:58;;;;;;;0.10;0.10;;;9.70;99.90;;;;;;4183347;28;20411;-56
2024/03/10 05:27:00;;;;;;;0.00;0.00;;;9.70;99.90;;;;;;4182871;28;20049;-55
2024/03/10 05:29:03;;;;;;;0.00;0.00;;;9.70;99.90;;;;;;4182734;28;20189;-55
2024/03/10 05:31:26;;;;;;;0.00;0.00;;;9.60;99.90;;;;;;4182533;28;20128;-55
2024/03/10 05:33:30;;;;;;;0.00;0.00;;;9.60;99.90;;;;;;4182876;28;20080;-55
2024/03/10 05:35:32;;;;;;;0.00;0.00;;;9.70;99.90;;;;;;4182754;28;20564;-54
2024/03/10 05:37:36;;;;;;;0.05;0.05;;;9.70;99.90;;;;;;4182625;28;20045;-60
2024/03/10 05:39:38;;;;;;;0.00;0.00;;;9.70;99.90;;;;;;4182613;28;20052;-55
2024/03/10 05:41:42;;;;;;;0.13;0.00;;;9.60;99.90;;;;;;4182818;28;20052;-55
2024/03/10 05:43:44;;;;;;;0.00;0.00;;;9.60;99.90;;;;;;4182821;28;20407;-55
2024/03/10 05:45:46;;;;;;;0.00;0.00;;;9.60;99.90;;;;;;4182950;28;20361;-54
2024/03/10 05:47:48;;;;;;;0.00;0.00;;;9.60;99.90;;;;;;4182928;28;20076;-56
2024/03/10 05:49:51;;;;;;;0.00;0.00;;;9.60;99.90;;;;;;4183211;28;20065;-56
2024/03/10 05:51:56;;;;;;;0.00;0.00;;;9.60;99.90;;;;;;4182802;28;20161;-56
2024/03/10 05:53:58;;;;;;;0.00;0.00;;;9.60;99.90;;;;;;4182570;28;20452;-57
2024/03/10 05:56:00;;;;;;;0.00;0.00;;;9.60;99.90;;;;;;4182306;28;20068;-56
2024/03/10 05:58:04;;;;;;;0.08;0.08;;;9.60;99.90;;;;;;4182293;28;20051;-55
2024/03/10 06:00:13;;;;;;;0.00;0.00;;;9.70;99.90;;;;;;4181931;28;20080;-56
2024/03/10 06:02:17;;;;;;;0.00;0.00;;;9.60;99.90;;;;;;4182548;28;20478;-56
2024/03/10 06:04:19;;;;;;;0.00;0.00;;;9.60;99.90;;;;;;4182105;28;20449;-57
2024/03/10 06:06:21;;;;;;;1.08;0.10;;;9.60;99.90;;;;;;4164931;28;20053;-55
2024/03/10 06:08:23;;;;;;;0.90;0.65;;;9.70;99.90;;;;;;4182533;28;20403;-55
2024/03/10 06:10:26;;;;;;;0.00;0.00;;;9.70;99.90;;;;;;4181911;28;20076;-56
2024/03/10 06:12:28;;;;;;;0.10;0.10;;;9.70;99.90;;;;;;4181924;28;20041;-55
2024/03/10 06:14:32;;;;;;;0.00;0.00;;;9.80;99.90;;;;;;4182197;28;20109;-57
2024/03/10 06:16:34;;;;;;;0.20;0.20;;;9.70;99.90;;;;;;4182337;28;20469;-56
2024/03/10 06:25:41;;;;;;;0.00;0.00;;;9.80;99.90;;;;;;4147298;28;20826;-56
2024/03/10 06:27:43;;;;;;;0.15;0.08;;;9.80;99.90;;;;;;4147558;28;20073;-57
2024/03/10 06:29:46;;;;;;;0.00;0.00;;;9.70;99.90;;;;;;4130997;28;20072;-55
2024/03/10 06:31:48;;;;;;;0.00;0.00;;;9.80;99.90;;;;;;4130253;28;20425;-61
2024/03/10 06:33:50;;;;;;;0.20;0.10;;;9.90;99.90;;;;;;4130955;28;20130;-55
2024/03/10 06:35:52;;;;;;;0.10;0.10;;;10.00;99.90;;;;;;4147201;28;20081;-59
2024/03/10 06:37:56;;;;;;;0.00;0.00;;;10.00;99.90;;;;;;4146913;28;20394;-56
2024/03/10 06:39:58;;;;;;;0.10;0.10;;;10.00;99.90;;;;;;4146858;28;20152;-57
2024/03/10 06:42:01;;;;;;;0.55;0.17;;;10.00;99.90;;;;;;4147054;28;20088;-56
2024/03/10 06:44:06;;;;;;;0.00;0.00;;;10.00;99.90;;;;;;4146562;28;20072;-56
2024/03/10 06:46:09;;;;;;;0.10;0.10;;;9.90;99.90;;;;;;4146839;28;20084;-55
2024/03/10 06:48:13;;;;;;;0.08;0.00;;;9.90;99.90;;;;;;4146633;28;20057;-55
2024/03/10 06:50:16;;;;;;;0.00;0.00;;;9.90;99.90;;;;;;4147111;28;20472;-56
2024/03/10 06:52:18;;;;;;;0.00;0.00;;;9.90;99.90;;;;;;4146815;28;20065;-56
2024/03/10 06:54:23;;;;;;;0.03;0.03;;;9.80;99.90;;;;;;4146639;28;20054;-55
2024/03/10 06:56:25;;;;;;;0.20;0.15;;;9.80;99.90;;;;;;4146506;28;20045;-56
2024/03/10 06:58:27;;;;;;;0.32;0.10;;;9.90;99.90;;;;;;4164196;28;20048;-56
2024/03/10 07:00:32;;;;;;;0.00;0.00;;;9.80;99.90;;;;;;4163778;28;20107;-56
2024/03/10 07:02:37;;;;;;;0.00;0.00;;;9.80;99.90;;;;;;4181433;28;20111;-56
2024/03/10 07:04:45;;;;;;;0.00;0.00;;;9.90;99.90;;;;;;4181052;28;20045;-57
2024/03/10 07:06:50;;;;;;;0.28;0.10;;;9.90;99.90;;;;;;4181585;28;20073;-56
2024/03/10 07:08:52;;;;;;;0.00;0.00;;;10.00;99.90;;;;;;4181932;28;20080;-56
2024/03/10 07:10:54;;;;;;;0.10;0.10;;;9.90;99.90;;;;;;4181649;28;20064;-57
2024/03/10 07:12:56;;;;;;;0.00;0.00;;;9.90;99.90;;;;;;4181668;28;20492;-55
2024/03/10 07:14:58;;;;;;;0.00;0.00;;;9.90;99.90;;;;;;4181296;28;20128;-56
2024/03/10 07:17:01;;;;;;;0.00;0.00;;;9.90;99.90;;;;;;4180976;28;20072;-56
2024/03/10 07:19:05;;;;;;;0.00;0.00;;;10.00;99.90;;;;;;4181170;28;20041;-60
2024/03/10 07:21:08;;;;;;;0.13;0.10;;;10.00;99.90;;;;;;4181077;28;20404;-55
2024/03/10 07:23:10;;;;;;;0.05;0.05;;;9.90;99.90;;;;;;4181180;28;20123;-57
2024/03/10 07:25:14;;;;;;;0.10;0.10;;;9.90;99.90;;;;;;4182101;28;20048;-57
2024/03/10 07:27:17;;;;;;;0.15;0.10;;;10.00;99.90;;;;;;4182226;28;20052;-63
2024/03/10 07:29:19;;;;;;;0.00;0.00;;;10.00;99.90;;;;;;4182222;28;20059;-60
2024/03/10 07:31:21;;;;;;;0.00;0.00;;;10.00;99.90;;;;;;4181576;28;20381;-56
2024/03/10 07:33:23;;;;;;;0.35;0.10;;;10.00;99.90;;;;;;4180954;28;20051;-55
2024/03/10 07:35:27;;;;;;;0.00;0.00;;;10.00;99.90;;;;;;4163738;28;20056;-61
2024/03/10 07:37:30;;;;;;;0.38;0.10;;;10.00;99.90;;;;;;4182519;28;20416;-63
2024/03/10 07:39:32;;;;;;;0.03;0.03;;;10.00;99.90;;;;;;4182170;28;20139;-56
2024/03/10 07:41:34;;;;;;;0.00;0.00;;;9.90;99.90;;;;;;4181697;28;20110;-57
2024/03/10 07:43:37;;;;;;;0.10;0.08;;;10.00;99.90;;;;;;4181569;28;20123;-56
2024/03/10 07:45:39;;;;;;;0.47;0.10;;;10.00;99.90;;;;;;4181009;28;20041;-55
2024/03/10 07:47:43;;;;;;;0.03;0.03;;;10.10;99.90;;;;;;4180873;28;20047;-55
2024/03/10 07:49:45;;;;;;;0.20;0.20;;;10.10;99.90;;;;;;4180760;28;20099;-56
2024/03/10 07:51:49;;;;;;;0.28;0.20;;;10.10;99.90;;;;;;4180494;28;20045;-61
2024/03/10 07:53:52;;;;;;;1.55;0.25;;;10.20;99.90;;;;;;4180414;28;20045;-56
2024/03/10 07:55:55;;;;;;;0.00;0.00;;;10.20;99.90;;;;;;4180401;28;20132;-55
2024/03/10 07:57:57;;;;;;;0.17;0.13;;;10.30;99.90;;;;;;4180409;28;20128;-56
2024/03/10 08:00:00;;;;;;;0.00;0.00;;;10.30;99.90;;;;;;4181133;28;20052;-59
2024/03/10 08:02:03;;;;;;;0.00;0.00;;;10.30;99.90;;;;;;4180798;28;20049;-56
2024/03/10 08:04:05;;;;;;;0.10;0.10;;;10.30;99.90;;;;;;4180520;28;20468;-55
2024/03/10 08:06:10;;;;;;;0.30;0.10;;;10.30;99.90;;;;;;4180284;28;20065;-55
2024/03/10 08:08:13;;;;;;;0.00;0.00;;;10.20;99.90;;;;;;4180211;28;20049;-56
2024/03/10 08:10:17;;;;;;;0.20;0.10;;;10.20;99.90;;;;;;4180239;28;20061;-55
2024/03/10 08:12:19;;;;;;;0.00;0.00;;;10.20;99.90;;;;;;4179876;28;20048;-56
2024/03/10 08:14:21;;;;;;;0.43;0.20;;;10.20;99.90;;;;;;4180510;28;20103;-56
2024/03/10 08:16:23;;;;;;;0.45;0.00;;;10.20;99.90;;;;;;4180263;28;20048;-60
2024/03/10 08:18:25;;;;;;;0.00;0.00;;;10.20;99.90;;;;;;4180208;28;20458;-56
2024/03/10 08:20:27;;;;;;;0.10;0.10;;;10.20;99.90;;;;;;4180034;28;20055;-56
2024/03/10 08:22:30;;;;;;;0.10;0.10;;;10.10;99.90;;;;;;4163278;28;20045;-59
2024/03/10 08:24:33;;;;;;;0.00;0.00;;;10.20;99.90;;;;;;4180737;28;20049;-56
2024/03/10 08:26:38;;;;;;;0.10;0.10;;;10.30;99.90;;;;;;4180254;28;20048;-56
2024/03/10 08:28:41;;;;;;;0.32;0.32;;;10.30;99.90;;;;;;4180495;28;20071;-55
2024/03/10 08:30:43;;;;;;;0.15;0.15;;;10.20;99.90;;;;;;4180500;28;20048;-55
2024/03/10 08:32:45;;;;;;;0.00;0.00;;;10.30;99.90;;;;;;4180402;28;20040;-56
2024/03/10 08:34:48;;;;;;;0.20;0.10;;;10.40;99.90;;;;;;4180295;28;20128;-55
2024/03/10 08:36:52;;;;;;;0.50;0.20;;;10.40;99.90;;;;;;4180287;28;20049;-55
2024/03/10 08:38:54;;;;;;;0.55;0.55;;;10.40;99.90;;;;;;4180244;28;20469;-55
2024/03/10 08:40:58;;;;;;;0.10;0.10;;;10.50;99.90;;;;;;4179829;28;20045;-56
2024/03/10 08:43:00;;;;;;;0.10;0.10;;;10.40;99.90;;;;;;4179979;28;20105;-56
2024/03/10 08:45:03;;;;;;;0.98;0.08;;;10.40;99.90;;;;;;4180231;28;20132;-56
2024/03/10 08:47:05;;;;;;;0.10;0.10;;;10.40;99.90;;;;;;4180701;28;20048;-56
2024/03/10 08:49:08;;;;;;;0.25;0.20;;;10.40;99.90;;;;;;4180100;28;20080;-55
2024/03/10 08:51:10;;;;;;;0.30;0.30;;;10.40;99.90;;;;;;4179972;28;20049;-56
2024/03/10 08:53:13;;;;;;;0.10;0.10;;;10.50;99.90;;;;;;4180342;28;20079;-56
2024/03/10 08:55:16;;;;;;;0.10;0.10;;;10.50;99.90;;;;;;4182689;28;20045;-55
2024/03/10 08:57:19;;;;;;;1.25;0.47;;;10.50;99.90;;;;;;4183202;28;20199;-56
2024/03/10 08:59:22;;;;;;;0.15;0.15;;;10.60;99.90;;;;;;4183435;28;20049;-55
2024/03/10 09:01:24;;;;;;;0.43;0.43;;;10.60;99.90;;;;;;4183124;28;20068;-56
2024/03/10 09:03:27;;;;;;;0.10;0.10;;;10.60;99.90;;;;;;4183760;28;20132;-55
2024/03/10 09:05:29;;;;;;;0.00;0.00;;;10.70;99.90;;;;;;4183954;28;20052;-56
2024/03/10 09:07:31;;;;;;;0.20;0.15;;;10.70;99.90;;;;;;4183547;28;20041;-57
2024/03/10 09:09:33;;;;;;;0.32;0.30;;;10.90;99.90;;;;;;4183601;28;20056;-56
2024/03/10 09:11:35;;;;;;;0.10;0.10;;;10.90;99.90;;;;;;4183802;28;20499;-56
2024/03/10 09:13:41;;;;;;;0.00;0.00;;;10.80;99.90;;;;;;4183179;28;20045;-56
2024/03/10 09:15:43;;;;;;;0.10;0.10;;;11.00;99.90;;;;;;4182883;28;20053;-56
2024/03/10 09:17:45;;;;;;;0.30;0.20;;;10.90;99.90;;;;;;4183269;28;20045;-57
2024/03/10 09:19:48;;;;;;;0.08;0.08;;;10.90;99.90;;;;;;4183176;28;20501;-56
2024/03/10 09:21:50;;;;;;;0.88;0.10;;;10.90;99.90;;;;;;4183536;28;20452;-56
2024/03/10 09:23:52;;;;;;;0.28;0.20;;;11.00;99.90;;;;;;4165341;28;20088;-57
2024/03/10 09:25:54;;;;;;;0.10;0.10;;;10.90;99.90;;;;;;4183173;28;20045;-58
2024/03/10 09:27:57;;;;;;;0.30;0.30;;;10.90;99.90;;;;;;4183299;28;20056;-56
2024/03/10 09:30:00;;;;;;;0.05;0.05;;;10.90;99.90;;;;;;4183065;28;20462;-56
2024/03/10 09:32:06;;;;;;;0.38;0.10;;;10.90;99.90;;;;;;4183508;28;20061;-56
2024/03/10 09:34:09;;;;;;;0.20;0.20;;;10.90;99.90;;;;;;4183427;28;20435;-56
2024/03/10 09:36:11;;;;;;;0.40;0.35;;;10.90;99.90;;;;;;4182673;28;20094;-56
2024/03/10 09:38:13;;;;;;;0.30;0.20;;;10.90;99.90;;;;;;4182588;28;20053;-57
2024/03/10 09:40:18;;;;;;;0.10;0.10;;;10.90;99.90;;;;;;4182572;28;20048;-58
2024/03/10 09:42:21;;;;;;;0.10;0.10;;;10.90;99.90;;;;;;4182460;28;20048;-55
2024/03/10 09:44:24;;;;;;;0.20;0.20;;;10.90;99.90;;;;;;4180828;28;20756;-56
2024/03/10 09:46:30;;;;;;;0.15;0.15;;;10.80;99.90;;;;;;4181768;28;20502;-57
2024/03/10 09:48:32;;;;;;;;;;;10.80;99.90;;;;;;4183224;28;20123;-57
2024/03/10 09:50:35;;;;;;;0.00;0.00;;;10.80;99.90;;;;;;4164900;28;19937;-56
2024/03/10 09:52:38;;;;;;;0.20;0.20;;;10.80;99.90;;;;;;4182023;28;20057;-56
2024/03/10 09:54:40;;;;;;;0.77;0.60;;;10.80;99.90;;;;;;4182884;28;20408;-58
2024/03/10 09:56:44;;;;;;;1.20;0.75;;;10.80;99.90;;;;;;4182943;28;20045;-55
2024/03/10 09:58:50;;;;;;;0.30;0.30;;;10.90;99.90;;;;;;4182662;28;20425;-56
2024/03/10 10:00:53;;;;;;;0.20;0.20;;;11.00;99.90;;;;;;4182992;28;20056;-58
2024/03/10 10:03:01;;;;;;;0.45;0.20;;;11.00;99.90;;;;;;4183149;28;20069;-58
2024/03/10 10:05:14;;;;;;;0.15;0.15;;;11.00;99.90;;;;;;4182634;28;20041;-56
2024/03/10 10:07:17;;;;;;;0.22;0.10;;;11.20;99.90;;;;;;4181767;28;20407;-56
2024/03/10 10:09:19;;;;;;;0.20;0.20;;;11.10;99.90;;;;;;4182011;28;20057;-56
2024/03/10 10:11:23;;;;;;;0.95;0.40;;;11.00;99.90;;;;;;4181127;28;20064;-55
2024/03/10 10:13:29;;;;;;;0.77;0.75;;;11.10;99.90;;;;;;4182533;28;20045;-55
2024/03/10 10:15:33;;;;;;;0.30;0.30;;;11.20;99.90;;;;;;4164498;28;20049;-55
2024/03/10 10:17:38;;;;;;;0.20;0.20;;;11.20;99.90;;;;;;4182730;28;20427;-56
2024/03/10 10:19:42;;;;;;;0.20;0.20;;;11.20;99.90;;;;;;4182566;28;20049;-56
2024/03/10 10:21:45;;;;;;;0.20;0.20;;;11.10;99.90;;;;;;4181721;28;20127;-55
2024/03/10 10:23:48;;;;;;;0.20;0.10;;;11.20;99.90;;;;;;4182395;28;20482;-56
2024/03/10 10:26:05;;;;;;;0.13;0.10;;;11.20;99.90;;;;;;4182175;28;20064;-55
2024/03/10 10:28:12;;;;;;;1.67;0.55;;;11.30;99.90;;;;;;4181949;28;20045;-56
2024/03/10 10:30:18;;;;;;;0.30;0.20;;;11.30;99.90;;;;;;4181879;28;20128;-59
2024/03/10 10:32:21;;;;;;;0.38;0.38;;;11.40;99.90;;;;;;4182247;28;20048;-56
2024/03/10 10:34:24;;;;;;;1.42;0.10;;;11.40;99.90;;;;;;4181872;28;20041;-55
2024/03/10 10:36:27;;;;;;;0.45;0.45;;;11.30;99.90;;;;;;4181644;28;20052;-56
2024/03/10 10:38:37;;;;;;;0.10;0.10;;;11.30;99.90;;;;;;4181884;28;20443;-58
2024/03/10 10:40:40;;;;;;;0.88;0.10;;;11.30;99.90;;;;;;4182592;28;20478;-55
2024/03/10 10:42:42;;;;;;;0.55;0.17;;;11.30;99.90;;;;;;4182033;28;20056;-59
2024/03/10 10:45:03;;;;;;;0.10;0.10;;;11.40;99.90;;;;;;4166711;28;20065;-59
2024/03/10 10:47:07;;;;;;;0.10;0.10;;;11.30;99.90;;;;;;4181893;28;20045;-56
2024/03/10 10:49:11;;;;;;;0.28;0.20;;;11.30;99.90;;;;;;4164294;28;20133;-56
2024/03/10 10:51:14;;;;;;;0.30;0.20;;;11.40;99.90;;;;;;4181844;28;20053;-56
2024/03/10 10:53:18;;;;;;;0.20;0.20;;;11.50;99.90;;;;;;4182224;28;20080;-56
2024/03/10 10:55:21;;;;;;;0.95;0.73;;;11.50;99.90;;;;;;4182272;28;20055;-57
2024/03/10 10:57:25;;;;;;;0.10;0.10;;;11.50;99.90;;;;;;4181804;28;20071;-58
2024/03/10 10:59:28;;;;;;;0.45;0.45;;;11.50;99.90;;;;;;4181875;28;20048;-56
2024/03/10 11:01:31;;;;;;;0.30;0.30;;;11.40;99.90;;;;;;4182704;28;20068;-57
2024/03/10 11:03:36;;;;;;;2.17;0.70;;;11.40;99.90;;;;;;4183310;28;20446;-56
2024/03/10 11:05:40;;;;;;;0.52;0.45;;;11.30;99.90;;;;;;4182953;28;20041;-64